createdAt,value
2019-02-14T00:00:07.726Z,98377.27
2019-02-14T00:02:33.776Z,98375.55
2019-02-14T00:04:59.594Z,98372.11
2019-02-14T00:07:25.388Z,98364.44
2019-02-14T00:09:51.271Z,98367.00
2019-02-14T00:12:17.327Z,98363.12
2019-02-14T00:14:43.142Z,98365.23
2019-02-14T00:17:08.945Z,98366.11
2019-02-14T00:19:34.806Z,98372.11
2019-02-14T00:22:00.623Z,98369.58
2019-02-14T00:24:29.238Z,98373.00
2019-02-14T00:26:55.112Z,98364.44
2019-02-14T00:29:20.921Z,98355.05
2019-02-14T00:31:47.008Z,98362.73
2019-02-14T00:34:13.136Z,98352.88
2019-02-14T00:36:39.329Z,98358.03
2019-02-14T00:39:05.577Z,98360.61
2019-02-14T00:41:31.653Z,98355.91
2019-02-14T00:43:57.484Z,98358.03
2019-02-14T00:46:23.385Z,98352.47
2019-02-14T00:48:49.601Z,98362.73
2019-02-14T00:51:15.412Z,98363.16
2019-02-14T00:53:41.238Z,98346.89
2019-02-14T00:56:07.347Z,98363.58
2019-02-14T00:58:36.095Z,98349.06
2019-02-14T01:01:02.006Z,98352.48
2019-02-14T01:03:30.730Z,98357.17
2019-02-14T01:05:56.637Z,98357.63
2019-02-14T01:08:27.252Z,98352.05
2019-02-14T01:10:53.060Z,98349.91
2019-02-14T01:13:22.224Z,98348.61
2019-02-14T01:15:49.166Z,98348.61
2019-02-14T01:18:14.943Z,98349.05
2019-02-14T01:20:40.768Z,98346.49
2019-02-14T01:23:06.665Z,98343.48
2019-02-14T01:25:32.504Z,98341.36
2019-02-14T01:27:58.292Z,98345.61
2019-02-14T01:30:27.145Z,98338.79
2019-02-14T01:32:53.230Z,98357.16
2019-02-14T01:35:22.246Z,98343.06
2019-02-14T01:37:48.301Z,98361.90
2019-02-14T01:40:16.879Z,98341.34
2019-02-14T01:42:42.976Z,98341.36
2019-02-14T01:45:21.815Z,98345.63
2019-02-14T01:47:49.576Z,98346.48
2019-02-14T01:50:18.228Z,98341.78
2019-02-14T01:52:44.040Z,98334.08
2019-02-14T01:55:09.863Z,98338.35
2019-02-14T01:57:35.704Z,98334.94
2019-02-14T02:00:01.718Z,98338.36
2019-02-14T02:02:27.843Z,98339.63
2019-02-14T02:04:53.671Z,98298.59
2019-02-14T02:07:19.907Z,98331.09
2019-02-14T02:09:45.777Z,98343.92
2019-02-14T02:12:12.105Z,98328.11
2019-02-14T02:14:38.224Z,98323.38
2019-02-14T02:17:04.053Z,98324.66
2019-02-14T02:19:30.180Z,98316.97
2019-02-14T02:21:56.011Z,98317.39
2019-02-14T02:24:22.114Z,98311.42
2019-02-14T02:26:52.609Z,98309.70
2019-02-14T02:29:18.480Z,98302.42
2019-02-14T02:31:44.299Z,98302.44
2019-02-14T02:34:10.085Z,98300.28
2019-02-14T02:36:35.917Z,98304.55
2019-02-14T02:39:05.994Z,98304.13
2019-02-14T02:41:31.824Z,98293.03
2019-02-14T02:43:57.723Z,98303.69
2019-02-14T02:46:23.539Z,98304.13
2019-02-14T02:48:52.298Z,98305.86
2019-02-14T02:51:18.408Z,98321.67
2019-02-14T02:53:46.720Z,98306.27
2019-02-14T02:56:12.565Z,98298.16
2019-02-14T02:58:40.704Z,98305.41
2019-02-14T03:01:06.501Z,98300.72
2019-02-14T03:03:36.156Z,98305.84
2019-02-14T03:06:10.197Z,98308.86
2019-02-14T03:08:29.961Z,98307.98
2019-02-14T03:10:55.859Z,98307.55
2019-02-14T03:13:21.949Z,98308.43
2019-02-14T03:15:48.013Z,98314.84
2019-02-14T03:18:14.103Z,98309.72
2019-02-14T03:20:43.228Z,98305.86
2019-02-14T03:23:09.093Z,98304.56
2019-02-14T03:25:38.246Z,98302.84
2019-02-14T03:28:04.058Z,98300.71
2019-02-14T03:30:33.003Z,98300.72
2019-02-14T03:32:58.813Z,98301.59
2019-02-14T03:35:27.395Z,98300.28
2019-02-14T03:37:53.237Z,98317.39
2019-02-14T03:40:22.066Z,98299.02
2019-02-14T03:42:48.166Z,98302.42
2019-02-14T03:45:18.313Z,98299.86
2019-02-14T03:47:44.113Z,98301.16
2019-02-14T03:50:11.130Z,98302.42
2019-02-14T03:52:37.076Z,98304.14
2019-02-14T03:55:04.714Z,98310.98
2019-02-14T03:57:30.543Z,98310.98
2019-02-14T03:59:56.362Z,98311.84
2019-02-14T04:02:22.194Z,98316.53
2019-02-14T04:04:48.017Z,98312.69
2019-02-14T04:07:17.577Z,98314.38
2019-02-14T04:09:43.731Z,98313.54
2019-02-14T04:12:11.718Z,98315.67
2019-02-14T04:14:44.756Z,98317.36
2019-02-14T04:17:10.762Z,98303.70
2019-02-14T04:19:36.869Z,98328.09
2019-02-14T04:22:02.995Z,98324.66
2019-02-14T04:24:37.181Z,98328.90
2019-02-14T04:27:03.414Z,98329.74
2019-02-14T04:29:29.464Z,98327.61
2019-02-14T04:31:55.328Z,98332.30
2019-02-14T04:34:21.542Z,98336.13
2019-02-14T04:36:47.381Z,98337.84
2019-02-14T04:39:13.452Z,98339.53
2019-02-14T04:41:39.548Z,98338.70
2019-02-14T04:44:05.642Z,98331.42
2019-02-14T04:46:31.669Z,98337.41
2019-02-14T04:48:57.502Z,98327.98
2019-02-14T04:51:25.274Z,98331.39
2019-02-14T04:53:54.262Z,98332.27
2019-02-14T04:56:20.846Z,98341.66
2019-02-14T04:58:46.676Z,98339.94
2019-02-14T05:01:12.581Z,98336.12
2019-02-14T05:03:38.386Z,98336.52
2019-02-14T05:06:04.186Z,98336.50
2019-02-14T05:08:30.007Z,98336.91
2019-02-14T05:10:58.562Z,98350.59
2019-02-14T05:13:24.399Z,98334.73
2019-02-14T05:15:52.839Z,98329.19
2019-02-14T05:18:18.706Z,98335.15
2019-02-14T05:20:47.514Z,98335.16
2019-02-14T05:23:13.342Z,98336.86
2019-02-14T05:25:42.409Z,98336.45
2019-02-14T05:28:08.269Z,98344.99
2019-02-14T05:30:37.386Z,98335.99
2019-02-14T05:33:03.174Z,98344.50
2019-02-14T05:35:29.012Z,98341.97
2019-02-14T05:37:54.805Z,98339.78
2019-02-14T05:40:21.013Z,98347.43
2019-02-14T05:42:49.701Z,98343.61
2019-02-14T05:45:15.629Z,98343.61
2019-02-14T05:47:43.630Z,98341.48
2019-02-14T05:50:11.022Z,98349.59
2019-02-14T05:52:39.590Z,98352.98
2019-02-14T05:55:10.172Z,98343.61
2019-02-14T05:57:36.379Z,98369.20
2019-02-14T06:00:05.339Z,98351.72
2019-02-14T06:02:32.227Z,98353.42
2019-02-14T06:04:58.633Z,98369.58
2019-02-14T06:07:24.547Z,98369.58
2019-02-14T06:09:50.343Z,98370.80
2019-02-14T06:12:16.127Z,98370.40
2019-02-14T06:14:42.038Z,98372.95
2019-02-14T06:17:07.857Z,98369.12
2019-02-14T06:19:36.476Z,98375.07
2019-02-14T06:22:02.342Z,98402.33
2019-02-14T06:24:31.054Z,98387.00
2019-02-14T06:26:56.960Z,98410.91
2019-02-14T06:29:26.067Z,98398.02
2019-02-14T06:31:51.871Z,98407.37
2019-02-14T06:34:20.683Z,98403.13
2019-02-14T06:36:46.506Z,98424.52
2019-02-14T06:39:15.359Z,98414.13
2019-02-14T06:41:41.252Z,98411.50
2019-02-14T06:44:10.238Z,98412.39
2019-02-14T06:46:36.304Z,98438.11
2019-02-14T06:49:02.396Z,98416.78
2019-02-14T06:51:28.454Z,98423.63
2019-02-14T06:53:54.276Z,98422.75
2019-02-14T06:56:20.118Z,98429.15
2019-02-14T06:58:45.931Z,98430.37
2019-02-14T07:01:15.074Z,98423.17
2019-02-14T07:03:40.871Z,98424.47
2019-02-14T07:06:09.834Z,98431.34
2019-02-14T07:08:35.662Z,98451.06
2019-02-14T07:11:04.507Z,98432.00
2019-02-14T07:13:30.327Z,98434.67
2019-02-14T07:15:58.442Z,98434.67
2019-02-14T07:18:24.261Z,98430.14
2019-02-14T07:20:56.054Z,98430.14
2019-02-14T07:23:28.845Z,98433.60
2019-02-14T07:25:54.705Z,98432.49
2019-02-14T07:28:20.492Z,98432.49
2019-02-14T07:30:46.291Z,98427.33
2019-02-14T07:33:12.137Z,98420.48
2019-02-14T07:35:37.958Z,98418.41
2019-02-14T07:38:07.222Z,98421.92
2019-02-14T07:40:33.037Z,98417.95
2019-02-14T07:43:20.950Z,98425.08
2019-02-14T07:45:46.762Z,98423.28
2019-02-14T07:48:12.579Z,98428.97
2019-02-14T07:50:38.388Z,98427.69
2019-02-14T07:53:04.205Z,98415.48
2019-02-14T07:55:30.315Z,98418.05
2019-02-14T07:57:56.755Z,98424.77
2019-02-14T08:00:22.646Z,98428.09
2019-02-14T08:02:48.434Z,98414.67
2019-02-14T08:05:14.565Z,98420.44
2019-02-14T08:07:40.385Z,98424.03
2019-02-14T08:10:14.232Z,98408.59
2019-02-14T08:12:40.445Z,98424.29
2019-02-14T08:15:11.858Z,98425.83
2019-02-14T08:17:37.660Z,98418.29
2019-02-14T08:20:10.547Z,98417.26
2019-02-14T08:22:39.931Z,98422.02
2019-02-14T08:25:08.051Z,98413.88
2019-02-14T08:27:33.899Z,98412.59
2019-02-14T08:29:59.710Z,98417.00
2019-02-14T08:32:25.545Z,98417.70
2019-02-14T08:34:51.379Z,98428.31
2019-02-14T08:37:17.167Z,98422.22
2019-02-14T08:39:42.994Z,98429.57
2019-02-14T08:42:08.824Z,98384.93
2019-02-14T08:44:34.646Z,98437.10
2019-02-14T08:47:00.449Z,98436.67
2019-02-14T08:49:26.250Z,98436.63
2019-02-14T08:51:52.360Z,98432.96
2019-02-14T08:54:18.135Z,98436.38
2019-02-14T08:56:44.239Z,98420.00
2019-02-14T08:59:10.054Z,98415.41
2019-02-14T09:01:35.871Z,98423.36
2019-02-14T09:04:01.667Z,98425.28
2019-02-14T09:06:27.533Z,98422.36
2019-02-14T09:08:53.614Z,98424.56
2019-02-14T09:11:19.396Z,98425.33
2019-02-14T09:13:45.475Z,98435.73
2019-02-14T09:16:11.306Z,98432.53
2019-02-14T09:18:37.468Z,98438.45
2019-02-14T09:21:03.291Z,98436.92
2019-02-14T09:23:29.093Z,98432.05
2019-02-14T09:25:55.183Z,98431.30
2019-02-14T09:28:20.999Z,98430.61
2019-02-14T09:30:46.838Z,98426.80
2019-02-14T09:33:12.937Z,98385.49
2019-02-14T09:35:38.742Z,98422.09
2019-02-14T09:38:24.502Z,98424.07
2019-02-14T09:40:50.335Z,98425.06
2019-02-14T09:43:16.128Z,98421.40
2019-02-14T09:45:41.924Z,98422.28
2019-02-14T09:48:07.718Z,98419.92
2019-02-14T09:50:33.510Z,98420.28
2019-02-14T09:52:59.591Z,98418.27
2019-02-14T09:55:25.417Z,98401.83
2019-02-14T09:57:51.238Z,98401.83
2019-02-14T10:00:18.044Z,98408.61
2019-02-14T10:02:44.152Z,98409.76
2019-02-14T10:05:10.034Z,98412.25
2019-02-14T10:07:35.962Z,98412.25
2019-02-14T10:10:03.722Z,98418.59
2019-02-14T10:12:29.536Z,98408.71
2019-02-14T10:14:55.596Z,98408.71
2019-02-14T10:17:22.408Z,98394.98
2019-02-14T10:19:48.390Z,98394.98
2019-02-14T10:22:14.266Z,98403.13
2019-02-14T10:24:40.295Z,98408.81
2019-02-14T10:27:06.101Z,98400.26
2019-02-14T10:29:31.924Z,98402.48
2019-02-14T10:31:57.731Z,98397.97
2019-02-14T10:34:23.517Z,98392.77
2019-02-14T10:36:52.104Z,98394.92
2019-02-14T10:39:17.887Z,98391.16
2019-02-14T10:41:48.794Z,98392.80
2019-02-14T10:44:14.645Z,98387.60
2019-02-14T10:46:43.705Z,98390.77
2019-02-14T10:49:09.504Z,98400.73
2019-02-14T10:51:38.399Z,98384.13
2019-02-14T10:54:04.470Z,98370.37
2019-02-14T10:56:33.370Z,98370.37
2019-02-14T10:58:59.291Z,98368.61
2019-02-14T11:01:25.212Z,98368.61
2019-02-14T11:03:51.435Z,98382.67
2019-02-14T11:06:17.273Z,98377.41
2019-02-14T11:08:43.329Z,98379.44
2019-02-14T11:11:09.261Z,98370.41
2019-02-14T11:13:38.083Z,98369.84
2019-02-14T11:16:04.296Z,98370.86
2019-02-14T11:18:32.924Z,98372.89
2019-02-14T11:20:58.760Z,98362.41
2019-02-14T11:23:27.505Z,98371.18
2019-02-14T11:25:53.351Z,98372.90
2019-02-14T11:28:22.311Z,98361.91
2019-02-14T11:30:48.140Z,98357.78
2019-02-14T11:33:16.699Z,98346.94
2019-02-14T11:35:42.525Z,98352.58
2019-02-14T11:38:10.856Z,98340.27
2019-02-14T11:40:36.957Z,98340.25
2019-02-14T11:43:02.764Z,98339.87
2019-02-14T11:45:28.597Z,98339.41
2019-02-14T11:47:54.411Z,98341.53
2019-02-14T11:50:22.475Z,98339.70
2019-02-14T11:52:48.311Z,98333.58
2019-02-14T11:55:16.969Z,98329.55
2019-02-14T11:57:42.800Z,98327.88
2019-02-14T12:00:26.520Z,98327.15
2019-02-14T12:02:55.696Z,98330.76
2019-02-14T12:05:20.197Z,98320.41
2019-02-14T12:07:46.344Z,98320.41
2019-02-14T12:10:13.897Z,98321.61
2019-02-14T12:12:40.086Z,98320.69
2019-02-14T12:15:08.300Z,98321.33
2019-02-14T12:17:34.123Z,98318.34
2019-02-14T12:22:25.836Z,98317.22
2019-02-14T12:24:51.651Z,98308.53
2019-02-14T12:27:17.461Z,98306.84
2019-02-14T12:29:43.552Z,98309.95
2019-02-14T12:32:09.372Z,98303.45
2019-02-14T12:34:35.443Z,98296.30
2019-02-14T12:37:01.242Z,98302.26
2019-02-14T12:39:27.341Z,98286.02
2019-02-14T12:41:53.133Z,98286.83
2019-02-14T12:44:19.192Z,98281.99
2019-02-14T12:46:47.860Z,98280.84
2019-02-14T12:49:13.675Z,98284.31
2019-02-14T12:51:42.688Z,98276.64
2019-02-14T12:54:11.342Z,98273.61
2019-02-14T12:56:37.207Z,98270.56
2019-02-14T12:59:03.047Z,98269.14
2019-02-14T13:01:28.873Z,98279.47
2019-02-14T13:03:54.671Z,98276.44
2019-02-14T13:06:20.747Z,98268.41
2019-02-14T13:08:49.645Z,98267.27
2019-02-14T13:11:15.441Z,98255.15
2019-02-14T13:13:49.819Z,98241.84
2019-02-14T13:16:12.280Z,98264.55
2019-02-14T13:18:38.086Z,98238.77
2019-02-14T13:21:05.768Z,98238.77
2019-02-14T13:23:31.768Z,98241.11
2019-02-14T13:25:57.599Z,98241.11
2019-02-14T13:28:26.514Z,98237.24
2019-02-14T13:30:52.653Z,98237.91
2019-02-14T13:33:18.444Z,98241.11
2019-02-14T13:35:44.268Z,98240.20
2019-02-14T13:38:10.052Z,98237.28
2019-02-14T13:40:38.211Z,98235.95
2019-02-14T13:43:26.130Z,98227.56
2019-02-14T13:45:52.028Z,98228.45
2019-02-14T13:48:17.822Z,98238.52
2019-02-14T13:50:43.608Z,98242.06
2019-02-14T13:53:09.426Z,98224.37
2019-02-14T13:55:35.341Z,98227.36
2019-02-14T13:58:01.401Z,98221.25
2019-02-14T14:00:28.500Z,98216.45
2019-02-14T14:02:54.310Z,98200.89
2019-02-14T14:05:20.155Z,98204.70
2019-02-14T14:07:45.982Z,98206.86
2019-02-14T14:10:11.872Z,98210.58
2019-02-14T14:12:53.184Z,98209.20
2019-02-14T14:15:19.637Z,98210.65
2019-02-14T14:17:45.687Z,98212.67
2019-02-14T14:20:11.630Z,98210.78
2019-02-14T14:22:37.593Z,98207.78
2019-02-14T14:25:05.094Z,98207.47
2019-02-14T14:27:31.303Z,98212.66
2019-02-14T14:29:58.804Z,98202.05
2019-02-14T14:32:24.785Z,98206.89
2019-02-14T14:34:50.868Z,98206.06
2019-02-14T14:37:19.713Z,98194.81
2019-02-14T14:39:47.866Z,98189.09
2019-02-14T14:42:27.775Z,98178.80
2019-02-14T14:44:53.626Z,98178.80
2019-02-14T14:47:19.422Z,98183.23
2019-02-14T14:49:45.478Z,98179.08
2019-02-14T14:52:11.279Z,98186.57
2019-02-14T14:54:37.115Z,98184.23
2019-02-14T14:57:03.190Z,98182.70
2019-02-14T14:59:28.996Z,98183.44
2019-02-14T15:01:54.843Z,98182.25
2019-02-14T15:04:20.899Z,98176.70
2019-02-14T15:06:47.119Z,98175.35
2019-02-14T15:09:12.917Z,98172.82
2019-02-14T15:11:38.736Z,98178.30
2019-02-14T15:14:04.520Z,98181.22
2019-02-14T15:16:30.355Z,98175.69
2019-02-14T15:18:56.447Z,98173.99
2019-02-14T15:21:22.604Z,98169.13
2019-02-14T15:23:48.425Z,98169.02
2019-02-14T15:26:14.279Z,98163.57
2019-02-14T15:28:40.082Z,98164.41
2019-02-14T15:33:42.642Z,98158.98
2019-02-14T15:36:08.485Z,98166.20
2019-02-14T15:38:35.045Z,98171.70
2019-02-14T15:41:01.986Z,98170.92
2019-02-14T15:43:27.799Z,98165.38
2019-02-14T15:45:53.621Z,98173.77
2019-02-14T15:48:19.541Z,98175.08
2019-02-14T15:50:45.386Z,98179.22
2019-02-14T15:53:11.189Z,98180.59
2019-02-14T15:55:39.082Z,98185.80
2019-02-14T15:58:07.290Z,98190.06
2019-02-14T16:00:35.147Z,98188.00
2019-02-14T16:03:06.973Z,98179.70
2019-02-14T16:05:32.772Z,98179.70
2019-02-14T16:08:00.500Z,98182.78
2019-02-14T16:10:27.749Z,98180.04
2019-02-14T16:12:54.363Z,98189.76
2019-02-14T16:15:20.432Z,98199.91
2019-02-14T16:17:46.524Z,98200.86
2019-02-14T16:20:12.650Z,98204.38
2019-02-14T16:22:40.214Z,98157.77
2019-02-14T16:25:06.976Z,98201.36
2019-02-14T16:27:32.937Z,98204.16
2019-02-14T16:29:58.753Z,98195.42
2019-02-14T16:32:24.564Z,98192.30
2019-02-14T16:34:50.381Z,98197.59
2019-02-14T16:37:16.474Z,98205.92
2019-02-14T16:39:51.315Z,98209.23
2019-02-14T16:42:10.022Z,98211.70
2019-02-14T16:44:36.120Z,98216.17
2019-02-14T16:47:01.954Z,98213.33
2019-02-14T16:49:27.754Z,98214.28
2019-02-14T16:51:53.596Z,98221.23
2019-02-14T16:54:19.671Z,98222.02
2019-02-14T16:56:45.766Z,98232.39
2019-02-14T16:59:11.585Z,98230.70
2019-02-14T17:01:37.423Z,98232.85
2019-02-14T17:04:06.032Z,98236.77
2019-02-14T17:06:32.125Z,98234.79
2019-02-14T17:09:01.235Z,98239.08
2019-02-14T17:11:27.058Z,98252.26
2019-02-14T17:13:52.852Z,98241.98
2019-02-14T17:16:18.690Z,98231.97
2019-02-14T17:18:44.539Z,98228.31
2019-02-14T17:21:10.330Z,98227.85
2019-02-14T17:23:36.291Z,98159.91
2019-02-14T17:26:04.987Z,98228.62
2019-02-14T17:28:31.111Z,98238.23
2019-02-14T17:31:00.219Z,98240.40
2019-02-14T17:33:26.458Z,98239.87
2019-02-14T17:35:55.674Z,98236.08
2019-02-14T17:38:21.546Z,98244.71
2019-02-14T17:40:50.124Z,98246.30
2019-02-14T17:43:16.212Z,98253.95
2019-02-14T17:45:45.028Z,98250.05
2019-02-14T17:48:11.159Z,98262.82
2019-02-14T17:50:37.228Z,98247.33
2019-02-14T17:53:03.320Z,98247.86
2019-02-14T17:55:29.394Z,98244.17
2019-02-14T17:57:58.025Z,98246.01
2019-02-14T18:00:23.863Z,98256.30
2019-02-14T18:02:52.783Z,98249.64
2019-02-14T18:05:18.618Z,98262.47
2019-02-14T18:07:47.403Z,98245.23
2019-02-14T18:10:13.326Z,98254.84
2019-02-14T18:12:42.163Z,98254.88
2019-02-14T18:15:10.571Z,98271.59
2019-02-14T18:17:36.399Z,98251.50
2019-02-14T18:20:03.032Z,98252.64
2019-02-14T18:22:33.089Z,98250.72
2019-02-14T18:24:59.314Z,98252.80
2019-02-14T18:27:25.445Z,98248.23
2019-02-14T18:29:51.276Z,98252.30
2019-02-14T18:32:17.082Z,98255.27
2019-02-14T18:34:43.206Z,98254.31
2019-02-14T18:37:09.229Z,98256.64
2019-02-14T18:39:38.089Z,98264.87
2019-02-14T18:42:04.197Z,98262.28
2019-02-14T18:44:32.858Z,98262.42
2019-02-14T18:46:58.952Z,98279.69
2019-02-14T18:49:28.116Z,98260.39
2019-02-14T18:51:53.918Z,98271.77
2019-02-14T18:54:20.077Z,98259.80
2019-02-14T18:56:45.871Z,98255.94
2019-02-14T18:59:15.251Z,98253.34
2019-02-14T19:01:41.295Z,98252.56
2019-02-14T19:04:07.124Z,98258.73
2019-02-14T19:06:32.922Z,98261.09
2019-02-14T19:08:58.743Z,98242.50
2019-02-14T19:11:27.560Z,98249.45
2019-02-14T19:13:53.380Z,98246.56
2019-02-14T19:16:22.398Z,98250.06
2019-02-14T19:18:48.186Z,98241.33
2019-02-14T19:21:16.805Z,98251.73
2019-02-14T19:23:42.615Z,98258.29
2019-02-14T19:26:11.585Z,98244.62
2019-02-14T19:28:37.426Z,98249.46
2019-02-14T19:31:06.377Z,98245.63
2019-02-14T19:33:32.528Z,98265.81
2019-02-14T19:36:00.110Z,98252.06
2019-02-14T19:38:26.198Z,98259.93
2019-02-14T19:40:51.999Z,98244.20
2019-02-14T19:43:17.833Z,98245.07
2019-02-14T19:45:43.664Z,98244.53
2019-02-14T19:48:12.602Z,98240.58
2019-02-14T19:50:38.719Z,98239.23
2019-02-14T19:53:07.441Z,98233.84
2019-02-14T19:55:33.550Z,98260.73
2019-02-14T19:58:02.210Z,98241.09
2019-02-14T20:00:27.995Z,98243.36
2019-02-14T20:02:56.756Z,98242.96
2019-02-14T20:05:22.577Z,98238.38
2019-02-14T20:07:51.494Z,98238.68
2019-02-14T20:10:17.528Z,98236.58
2019-02-14T20:12:46.555Z,98234.17
2019-02-14T20:15:18.862Z,98256.41
2019-02-14T20:17:44.689Z,98235.13
2019-02-14T20:20:10.547Z,98233.42
2019-02-14T20:22:36.720Z,98233.42
2019-02-14T20:25:06.597Z,98234.19
2019-02-14T20:27:32.753Z,98234.23
2019-02-14T20:29:58.601Z,98235.92
2019-02-14T20:32:24.389Z,98225.22
2019-02-14T20:34:50.185Z,98217.13
2019-02-14T20:37:16.262Z,98217.21
2019-02-14T20:39:42.055Z,98219.86
2019-02-14T20:42:08.146Z,98229.38
2019-02-14T20:44:36.951Z,98237.28
2019-02-14T20:47:03.059Z,98254.34
2019-02-14T20:49:32.209Z,98231.95
2019-02-14T20:51:58.280Z,98244.85
2019-02-14T20:54:24.102Z,98230.55
2019-02-14T20:56:51.608Z,98228.97
2019-02-14T20:59:17.417Z,98137.84
2019-02-14T21:01:43.385Z,98201.34
2019-02-14T21:04:09.204Z,98230.31
2019-02-14T21:06:38.040Z,98232.48
2019-02-14T21:09:04.452Z,98226.63
2019-02-14T21:11:33.352Z,98237.36
2019-02-14T21:13:59.154Z,98249.02
2019-02-14T21:16:27.725Z,98236.18
2019-02-14T21:18:53.558Z,98234.90
2019-02-14T21:21:22.560Z,98233.95
2019-02-14T21:23:48.396Z,98254.18
2019-02-14T21:26:17.230Z,98170.54
2019-02-14T21:28:43.085Z,98254.77
2019-02-14T21:31:08.917Z,98238.84
2019-02-14T21:33:34.725Z,98238.82
2019-02-14T21:36:00.545Z,98237.02
2019-02-14T21:38:29.262Z,98240.19
2019-02-14T21:40:55.170Z,98257.34
2019-02-14T21:43:24.224Z,98238.98
2019-02-14T21:45:50.042Z,98237.70
2019-02-14T21:48:18.725Z,98237.18
2019-02-14T21:50:44.483Z,98234.60
2019-02-14T21:53:13.087Z,98242.38
2019-02-14T21:55:38.893Z,98242.49
2019-02-14T21:58:07.565Z,98240.03
2019-02-14T22:00:33.446Z,98267.80
2019-02-14T22:03:03.108Z,98242.19
2019-02-14T22:05:28.991Z,98238.70
2019-02-14T22:07:57.814Z,98235.75
2019-02-14T22:10:23.657Z,98231.48
2019-02-14T22:12:49.473Z,98237.95
2019-02-14T22:15:21.302Z,98234.01
2019-02-14T22:17:47.204Z,98228.81
2019-02-14T22:20:12.971Z,98230.16
2019-02-14T22:22:39.141Z,98229.28
2019-02-14T22:25:07.459Z,98232.39
2019-02-14T22:27:33.267Z,98226.33
2019-02-14T22:29:59.364Z,98229.36
2019-02-14T22:32:25.189Z,98223.84
2019-02-14T22:34:54.012Z,98223.05
2019-02-14T22:37:19.801Z,98233.34
2019-02-14T22:39:48.372Z,98222.22
2019-02-14T22:42:14.200Z,98223.08
2019-02-14T22:44:40.005Z,98228.61
2019-02-14T22:47:06.148Z,98223.05
2019-02-14T22:49:31.982Z,98223.05
2019-02-14T22:52:04.223Z,98225.66
2019-02-14T22:54:30.074Z,98250.09
2019-02-14T22:56:59.531Z,98240.14
2019-02-14T22:59:25.602Z,98234.97
2019-02-14T23:01:51.431Z,98233.59
2019-02-14T23:04:17.209Z,98232.72
2019-02-14T23:06:43.042Z,98231.72
2019-02-14T23:09:09.103Z,98233.88
2019-02-14T23:11:37.978Z,98235.13
2019-02-14T23:14:03.847Z,98228.17
2019-02-14T23:16:31.888Z,98238.01
2019-02-14T23:18:58.034Z,98242.28
2019-02-14T23:21:23.840Z,98246.70
2019-02-14T23:23:49.978Z,98240.73
2019-02-14T23:26:15.766Z,98238.28
2019-02-14T23:28:43.766Z,98249.56
2019-02-14T23:31:09.690Z,98242.38
2019-02-14T23:33:38.799Z,98236.44
2019-02-14T23:36:05.083Z,98240.26
2019-02-14T23:38:33.120Z,98234.80
2019-02-14T23:40:58.960Z,98240.84
2019-02-14T23:43:27.709Z,98234.11
2019-02-14T23:45:56.977Z,98231.88
2019-02-14T23:48:23.096Z,98226.70
2019-02-14T23:50:48.907Z,98229.72
2019-02-14T23:53:17.780Z,98230.25
2019-02-14T23:55:43.862Z,98229.80
2019-02-14T23:58:10.113Z,98223.29
